Cummings, North Dakota
Current Conditions -  °F | °C
As of 11:53 AM on Tuesday 21 Oct 2014 (Local Time) from KGFK Reporting Station
Clear Clear  
Wind Chill: 13°   Ceiling: Unl
Heat Index: 13°   Visibility: 10mi
Dew Point:   Wind: 22mph
Humidity: 62%   Direction: 160°SSE
Pressure: 29.97"   Gusts: 29mph
Location:  47.51°N, 97.08°W
Report Text: KGFK 211653Z 16019G25KT 10SM CLR 13/06 A2997 RMK AO2 PK WND 16026/1633 SLP155 T01280056
Loading
Personal Weather Stations






























Interactive Weather Map
Tropical Storm Tracking
New forecast layout! Learn more

10-Day Weather Forecast

Advertisements
Track Severe Weather on mobile